createdAt,value
2023-03-04T03:46:12.547Z,25.21
2023-03-04T03:48:39.335Z,25.22
2023-03-04T03:51:05.940Z,25.17
2023-03-04T03:53:32.455Z,25.20
2023-03-04T03:55:59.181Z,25.20
2023-03-04T03:58:26.906Z,25.22
2023-03-04T04:00:53.550Z,25.18
2023-03-04T04:03:20.534Z,25.22
2023-03-04T04:05:47.054Z,25.22
2023-03-04T04:08:16.973Z,25.21
2023-03-04T04:10:43.568Z,25.16
2023-03-04T04:13:10.209Z,25.14
2023-03-04T04:15:38.521Z,25.12
2023-03-04T04:18:06.418Z,25.17
2023-03-04T04:20:32.984Z,25.16
2023-03-04T04:22:59.590Z,25.18
2023-03-04T04:25:26.224Z,25.15
2023-03-04T04:27:52.724Z,25.14
2023-03-04T04:30:19.345Z,25.17
2023-03-04T04:32:45.877Z,25.15
2023-03-04T04:35:12.425Z,25.13
2023-03-04T04:37:39.030Z,25.11
2023-03-04T04:40:06.067Z,25.14
2023-03-04T04:42:32.647Z,25.12
2023-03-04T04:44:59.429Z,25.05
2023-03-04T04:47:26.127Z,25.11
2023-03-04T04:49:52.677Z,25.09
2023-03-04T04:52:19.219Z,25.10
2023-03-04T04:54:45.825Z,25.02
2023-03-04T04:57:12.366Z,25.05
2023-03-04T04:59:39.025Z,25.10
2023-03-04T05:02:05.541Z,25.08
2023-03-04T05:04:32.046Z,25.05
2023-03-04T05:06:58.581Z,25.09
2023-03-04T05:09:25.136Z,25.04
2023-03-04T05:11:51.627Z,25.08
2023-03-04T05:14:18.175Z,25.03
2023-03-04T05:16:44.735Z,25.05
2023-03-04T05:19:11.373Z,25.05
2023-03-04T05:21:37.966Z,25.06
2023-03-04T05:24:05.181Z,25.02
2023-03-04T05:26:31.707Z,24.97
2023-03-04T05:28:58.198Z,24.93
2023-03-04T05:31:24.803Z,24.90
2023-03-04T05:33:51.367Z,24.85
2023-03-04T05:36:17.989Z,24.63
2023-03-04T05:38:44.550Z,24.70
2023-03-04T05:41:11.083Z,24.60
2023-03-04T05:43:42.521Z,24.58
2023-03-04T05:46:12.114Z,24.48
2023-03-04T05:48:38.632Z,24.46
2023-03-04T05:51:05.277Z,24.36
2023-03-04T05:53:31.830Z,24.37
2023-03-04T05:55:59.885Z,24.36
2023-03-04T05:58:26.453Z,24.36
2023-03-04T06:00:53.015Z,24.32
2023-03-04T06:03:20.773Z,24.33
2023-03-04T06:05:47.317Z,24.34
2023-03-04T06:08:14.159Z,24.18
2023-03-04T06:10:40.927Z,24.31
2023-03-04T06:13:07.803Z,24.31
2023-03-04T06:15:34.407Z,24.37
2023-03-04T06:18:00.970Z,24.33
2023-03-04T06:20:27.537Z,24.34
2023-03-04T06:22:54.112Z,24.33
2023-03-04T06:25:20.637Z,24.29
2023-03-04T06:27:48.690Z,24.32
2023-03-04T06:30:16.992Z,24.33
2023-03-04T06:32:47.396Z,24.32
2023-03-04T06:35:14.323Z,24.33
2023-03-04T06:37:40.983Z,24.31
2023-03-04T06:40:08.102Z,24.36
2023-03-04T06:42:35.209Z,24.33
2023-03-04T06:45:02.000Z,24.31
2023-03-04T06:47:28.586Z,24.26
2023-03-04T06:49:55.168Z,24.32
2023-03-04T06:52:21.757Z,24.34
2023-03-04T06:54:48.408Z,24.38
2023-03-04T06:57:15.023Z,24.41
2023-03-04T06:59:41.598Z,24.42
2023-03-04T07:02:11.348Z,24.33
2023-03-04T07:04:38.287Z,24.39
2023-03-04T07:07:05.035Z,24.36
2023-03-04T07:09:31.713Z,24.40
2023-03-04T07:11:58.270Z,24.38
2023-03-04T07:14:24.935Z,24.41
2023-03-04T07:16:51.507Z,24.42
2023-03-04T07:19:18.089Z,24.45
2023-03-04T07:21:44.702Z,24.43
2023-03-04T07:24:11.265Z,24.47
2023-03-04T07:26:38.300Z,24.36
2023-03-04T07:29:05.303Z,24.42
2023-03-04T07:31:33.249Z,24.42
2023-03-04T07:34:01.321Z,24.45
2023-03-04T07:36:28.089Z,24.47
2023-03-04T07:38:57.482Z,24.45
2023-03-04T07:41:25.323Z,24.44
2023-03-04T07:43:51.927Z,24.44
2023-03-04T07:46:18.561Z,24.46
2023-03-04T07:48:45.162Z,24.41
2023-03-04T07:51:14.162Z,24.45
2023-03-04T07:53:41.763Z,24.49
2023-03-04T07:56:09.347Z,24.49
2023-03-04T07:58:35.884Z,24.53
2023-03-04T08:01:13.065Z,24.54
2023-03-04T08:03:39.660Z,24.51
2023-03-04T08:06:11.177Z,24.52
2023-03-04T08:08:38.004Z,24.53
2023-03-04T08:11:09.329Z,24.52
2023-03-04T08:13:35.907Z,24.55
2023-03-04T08:16:02.709Z,24.56
2023-03-04T08:18:29.431Z,24.49
2023-03-04T08:20:56.035Z,24.55
2023-03-04T08:23:22.616Z,24.54
2023-03-04T08:25:49.167Z,24.58
2023-03-04T08:28:16.037Z,24.52
2023-03-04T08:30:42.604Z,24.55
2023-03-04T08:33:09.258Z,24.58
2023-03-04T08:35:39.385Z,24.62
2023-03-04T08:38:06.307Z,24.58
2023-03-04T08:40:33.023Z,24.47
2023-03-04T08:42:59.690Z,24.62
2023-03-04T08:45:26.239Z,24.60
2023-03-04T08:47:52.837Z,24.61
2023-03-04T08:50:22.022Z,24.60
2023-03-04T08:52:49.027Z,24.62
2023-03-04T08:55:15.674Z,24.63
2023-03-04T08:57:42.361Z,24.62
2023-03-04T09:00:09.363Z,24.61
2023-03-04T09:02:35.950Z,24.63
2023-03-04T09:05:02.503Z,24.59
2023-03-04T09:07:29.094Z,24.63
2023-03-04T09:09:56.126Z,24.62
2023-03-04T09:12:22.684Z,24.66
2023-03-04T09:15:01.138Z,24.65
2023-03-04T09:17:35.188Z,24.67
2023-03-04T09:20:04.244Z,24.68
2023-03-04T09:22:31.105Z,24.69
2023-03-04T09:24:57.653Z,24.65
2023-03-04T09:27:24.202Z,24.68
2023-03-04T09:29:50.769Z,24.65
2023-03-04T09:32:17.435Z,24.65
2023-03-04T09:34:44.050Z,24.65
2023-03-04T09:37:10.563Z,24.54
2023-03-04T09:39:37.153Z,24.58
2023-03-04T09:42:04.234Z,24.62
2023-03-04T09:44:36.808Z,24.64
2023-03-04T09:47:08.304Z,24.66
2023-03-04T09:49:35.129Z,24.67
2023-03-04T09:52:29.800Z,24.72
2023-03-04T09:55:05.483Z,24.68
2023-03-04T09:57:57.288Z,24.75
2023-03-04T10:00:47.125Z,24.74
2023-03-04T10:03:18.919Z,24.77
2023-03-04T10:05:59.300Z,24.85
2023-03-04T10:08:31.785Z,24.83
2023-03-04T10:10:59.078Z,24.87
2023-03-04T10:13:32.197Z,24.85
2023-03-04T10:15:58.906Z,24.89
2023-03-04T10:18:37.738Z,24.88
2023-03-04T10:21:23.107Z,24.93
2023-03-04T10:23:49.640Z,24.86
2023-03-04T10:26:17.858Z,24.88
2023-03-04T10:28:44.421Z,24.83
2023-03-04T10:31:35.289Z,24.83
2023-03-04T10:34:05.017Z,24.77
2023-03-04T10:36:31.531Z,24.69
2023-03-04T10:39:18.280Z,24.71
2023-03-04T10:41:45.931Z,24.70
2023-03-04T10:44:17.069Z,24.71
2023-03-04T10:46:45.254Z,24.68
2023-03-04T10:49:12.399Z,24.72
2023-03-04T10:51:46.820Z,24.71
2023-03-04T10:54:44.425Z,24.73
2023-03-04T10:57:19.287Z,24.74
2023-03-04T10:59:53.632Z,24.70
2023-03-04T11:02:24.334Z,24.77
2023-03-04T11:04:53.496Z,24.71
2023-03-04T11:07:24.436Z,24.71
2023-03-04T11:09:51.108Z,24.68
2023-03-04T11:12:20.393Z,24.63
2023-03-04T11:14:49.165Z,24.61
2023-03-04T11:17:17.578Z,24.65
2023-03-04T11:19:45.486Z,24.65
2023-03-04T11:22:14.521Z,24.60
2023-03-04T11:24:41.084Z,24.56
2023-03-04T11:27:26.855Z,24.55
2023-03-04T11:29:56.114Z,24.46
2023-03-04T11:32:24.846Z,24.39
2023-03-04T11:35:07.134Z,24.34
2023-03-04T11:37:50.763Z,24.25
2023-03-04T11:40:43.127Z,24.31
2023-03-04T11:43:30.296Z,24.30
2023-03-04T11:46:13.262Z,24.33
2023-03-04T11:48:53.896Z,24.30
2023-03-04T11:51:48.779Z,24.25
2023-03-04T11:54:15.508Z,24.16
2023-03-04T11:56:45.986Z,24.15
2023-03-04T11:59:24.571Z,24.20
2023-03-04T12:02:21.378Z,24.19
2023-03-04T12:05:18.661Z,24.22
2023-03-04T12:07:58.810Z,24.23
2023-03-04T12:10:39.934Z,24.26
2023-03-04T12:13:30.539Z,24.29
2023-03-04T12:16:16.130Z,24.25
2023-03-04T12:19:06.614Z,24.27
2023-03-04T12:21:37.296Z,24.28
2023-03-04T12:24:04.398Z,24.28
2023-03-04T12:26:43.702Z,24.32
2023-03-04T12:29:41.710Z,24.38
2023-03-04T12:32:16.135Z,24.36
2023-03-04T12:35:01.564Z,24.42
2023-03-04T12:37:28.092Z,24.50
2023-03-04T12:40:22.147Z,24.53
2023-03-04T12:43:00.776Z,24.63
2023-03-04T12:46:15.395Z,24.64
2023-03-04T12:48:44.078Z,24.58
2023-03-04T12:51:26.520Z,24.61
2023-03-04T12:54:26.571Z,24.62
2023-03-04T12:57:16.552Z,24.59
2023-03-04T13:00:22.036Z,24.60
2023-03-04T13:03:10.162Z,24.58
2023-03-04T13:06:18.150Z,24.57
2023-03-04T13:08:56.252Z,24.38
2023-03-04T13:11:25.911Z,24.45
2023-03-04T13:14:14.993Z,24.53
2023-03-04T13:16:45.955Z,24.58
2023-03-04T13:19:43.900Z,24.61
2023-03-04T13:22:29.655Z,24.64
2023-03-04T13:24:57.370Z,24.61
2023-03-04T13:27:48.899Z,24.69
2023-03-04T13:30:34.430Z,24.77
2023-03-04T13:33:10.696Z,24.75
2023-03-04T13:35:49.259Z,24.78
2023-03-04T13:38:31.243Z,24.80
2023-03-04T13:41:19.791Z,24.83
2023-03-04T13:43:56.857Z,24.69
2023-03-04T13:46:24.560Z,24.74
2023-03-04T13:48:51.144Z,24.72
2023-03-04T13:51:28.865Z,24.76
2023-03-04T13:53:59.417Z,24.79
2023-03-04T13:56:37.098Z,24.79
2023-03-04T13:59:48.243Z,24.82
2023-03-04T14:02:22.637Z,24.77
2023-03-04T14:04:59.951Z,24.80
2023-03-04T14:07:28.765Z,24.71
2023-03-04T14:10:05.165Z,24.79
2023-03-04T14:12:36.010Z,24.82
2023-03-04T14:15:24.586Z,24.80
2023-03-04T14:17:55.328Z,24.71
2023-03-04T14:20:31.338Z,24.73
2023-03-04T14:22:58.729Z,24.71
2023-03-04T14:25:29.711Z,24.80
2023-03-04T14:28:22.504Z,24.92
2023-03-04T14:30:56.237Z,24.96
2023-03-04T14:33:29.722Z,24.87
2023-03-04T14:36:00.991Z,25.03
2023-03-04T14:38:35.181Z,25.04
2023-03-04T14:41:12.556Z,25.01
2023-03-04T14:43:53.922Z,25.03
2023-03-04T14:46:20.539Z,25.02
2023-03-04T14:48:51.732Z,25.06
2023-03-04T14:51:38.463Z,25.02
2023-03-04T14:54:05.240Z,25.02
2023-03-04T14:56:34.204Z,25.04
2023-03-04T14:59:00.902Z,25.05
2023-03-04T15:01:31.074Z,25.01
2023-03-04T15:04:03.017Z,25.07
2023-03-04T15:06:31.467Z,25.05
2023-03-04T15:09:08.918Z,25.13
2023-03-04T15:11:44.831Z,25.15
2023-03-04T15:14:47.567Z,25.19
2023-03-04T15:17:24.989Z,25.18
2023-03-04T15:20:18.566Z,25.19
2023-03-04T15:22:45.149Z,25.19
2023-03-04T15:25:15.417Z,25.22
2023-03-04T15:27:42.385Z,25.19
2023-03-04T15:30:18.558Z,25.27
2023-03-04T15:32:45.160Z,25.24
2023-03-04T15:35:15.600Z,25.26
2023-03-04T15:37:42.345Z,25.26
2023-03-04T15:40:15.206Z,25.30
2023-03-04T15:42:41.810Z,25.28
2023-03-04T15:45:36.890Z,25.33
2023-03-04T15:48:07.752Z,25.30
2023-03-04T15:50:43.556Z,25.36
2023-03-04T15:53:39.694Z,25.38
2023-03-04T15:56:10.258Z,25.37
2023-03-04T15:58:36.958Z,25.36
2023-03-04T16:01:03.727Z,25.34
2023-03-04T16:03:30.587Z,25.36
2023-03-04T16:05:57.406Z,25.35
2023-03-04T16:08:27.209Z,25.36
2023-03-04T16:10:54.593Z,25.39
2023-03-04T16:13:22.587Z,25.41
2023-03-04T16:15:49.347Z,25.30
2023-03-04T16:18:16.183Z,25.39
2023-03-04T16:20:47.291Z,25.41
2023-03-04T16:23:19.384Z,25.44
2023-03-04T16:25:46.976Z,25.42
2023-03-04T16:28:13.701Z,25.39
2023-03-04T16:30:40.887Z,25.41
2023-03-04T16:33:07.658Z,25.41
2023-03-04T16:35:35.970Z,25.39
2023-03-04T16:38:02.680Z,25.36
2023-03-04T16:40:30.240Z,25.38
2023-03-04T16:42:56.882Z,25.26
2023-03-04T16:45:25.439Z,25.38
2023-03-04T16:47:52.154Z,25.34
2023-03-04T16:50:27.247Z,25.23
2023-03-04T16:52:54.727Z,25.36
2023-03-04T16:55:26.699Z,25.38
2023-03-04T16:57:54.020Z,25.23
2023-03-04T17:00:21.717Z,25.01
2023-03-04T17:02:59.434Z,24.74
2023-03-04T17:05:29.775Z,24.52
2023-03-04T17:07:56.407Z,24.27
2023-03-04T17:10:23.521Z,24.18
2023-03-04T17:12:50.991Z,24.22
2023-03-04T17:15:17.678Z,24.24
2023-03-04T17:17:44.624Z,24.40
2023-03-04T17:20:13.334Z,24.34
2023-03-04T17:22:40.067Z,24.48
2023-03-04T17:25:07.412Z,24.49
2023-03-04T17:27:34.067Z,24.65
2023-03-04T17:30:00.700Z,24.73
2023-03-04T17:32:32.534Z,24.82
2023-03-04T17:34:59.542Z,24.90
2023-03-04T17:37:26.284Z,24.85
2023-03-04T17:39:52.939Z,24.87
2023-03-04T17:42:19.747Z,24.94
2023-03-04T17:44:46.818Z,24.96
2023-03-04T17:47:13.669Z,24.96
2023-03-04T17:49:40.197Z,24.92
2023-03-04T17:52:06.920Z,24.91
2023-03-04T17:54:33.573Z,24.95
2023-03-04T17:57:00.180Z,25.01
2023-03-04T17:59:26.783Z,25.00
2023-03-04T18:01:54.379Z,25.00
2023-03-04T18:04:21.541Z,25.01
2023-03-04T18:06:48.223Z,25.02
2023-03-04T18:09:15.390Z,25.02
2023-03-04T18:11:42.274Z,25.07
2023-03-04T18:14:09.132Z,25.09
2023-03-04T18:16:35.872Z,25.09
2023-03-04T18:19:02.947Z,25.08
2023-03-04T18:21:29.817Z,25.07
2023-03-04T18:23:56.630Z,25.11
2023-03-04T18:26:23.554Z,25.12
2023-03-04T18:28:53.895Z,25.13
2023-03-04T18:31:21.955Z,25.10
2023-03-04T18:33:48.994Z,25.10
2023-03-04T18:36:15.814Z,25.03
2023-03-04T18:38:42.565Z,24.98
2023-03-04T18:41:11.769Z,24.98
2023-03-04T18:43:38.785Z,24.98
2023-03-04T18:46:08.398Z,24.99
2023-03-04T18:48:42.069Z,24.96
2023-03-04T18:51:08.708Z,25.02
2023-03-04T18:53:35.384Z,25.00
2023-03-04T18:56:09.154Z,24.96
2023-03-04T18:58:37.182Z,25.03
2023-03-04T19:01:05.013Z,25.04
2023-03-04T19:03:34.266Z,24.98
2023-03-04T19:06:01.446Z,25.05
2023-03-04T19:08:28.188Z,25.05
2023-03-04T19:10:55.819Z,25.07
2023-03-04T19:13:22.742Z,25.04
2023-03-04T19:15:52.808Z,25.06
2023-03-04T19:18:19.410Z,24.96
2023-03-04T19:20:47.141Z,24.99
2023-03-04T19:23:14.453Z,25.03
2023-03-04T19:25:41.738Z,25.07
2023-03-04T19:28:08.716Z,24.99
2023-03-04T19:30:42.134Z,25.03
2023-03-04T19:33:10.584Z,25.04
2023-03-04T19:35:42.563Z,25.01
2023-03-04T19:38:09.774Z,25.06
2023-03-04T19:40:40.633Z,25.12
2023-03-04T19:43:07.768Z,25.12
2023-03-04T19:45:34.667Z,25.14
2023-03-04T19:48:03.023Z,25.17
2023-03-04T19:50:29.942Z,25.18
2023-03-04T19:52:56.718Z,25.20
2023-03-04T19:55:23.384Z,25.19
2023-03-04T19:57:50.028Z,25.16
2023-03-04T20:00:16.918Z,25.17
2023-03-04T20:02:45.508Z,25.14
2023-03-04T20:05:13.455Z,25.10
2023-03-04T20:07:40.499Z,25.08
2023-03-04T20:10:07.936Z,25.09
2023-03-04T20:12:36.286Z,25.06
2023-03-04T20:15:05.921Z,25.13
2023-03-04T20:17:32.552Z,25.14
2023-03-04T20:19:59.374Z,25.11
2023-03-04T20:22:26.129Z,25.10
2023-03-04T20:24:54.912Z,25.13
2023-03-04T20:27:21.633Z,25.07
2023-03-04T20:29:49.207Z,25.13
2023-03-04T20:32:15.952Z,25.04
2023-03-04T20:34:42.572Z,25.14
2023-03-04T20:37:10.486Z,25.15
2023-03-04T20:39:37.339Z,25.12
2023-03-04T20:42:06.914Z,25.16
2023-03-04T20:44:36.499Z,25.14
2023-03-04T20:47:03.478Z,25.12
2023-03-04T20:49:30.822Z,25.13
2023-03-04T20:52:04.265Z,25.07
2023-03-04T20:54:38.787Z,25.15
2023-03-04T20:57:10.569Z,25.11
2023-03-04T20:59:41.456Z,24.98
2023-03-04T21:02:09.932Z,25.09
2023-03-04T21:04:39.770Z,25.09
2023-03-04T21:07:08.791Z,25.06
2023-03-04T21:09:37.318Z,25.06
2023-03-04T21:12:05.459Z,24.97
2023-03-04T21:14:32.815Z,24.96
2023-03-04T21:17:02.157Z,25.04
2023-03-04T21:19:33.332Z,24.99
2023-03-04T21:22:02.932Z,25.02
2023-03-04T21:24:33.978Z,25.00
2023-03-04T21:27:01.776Z,24.97
2023-03-04T21:29:28.795Z,24.96
2023-03-04T21:32:01.530Z,24.96
2023-03-04T21:34:42.693Z,25.00
2023-03-04T21:37:11.467Z,24.98
2023-03-04T21:39:38.798Z,24.84
2023-03-04T21:42:06.062Z,25.05
2023-03-04T21:44:48.641Z,25.04
2023-03-04T21:47:17.911Z,25.07
2023-03-04T21:49:44.958Z,25.06
2023-03-04T21:52:11.940Z,24.94
2023-03-04T21:54:39.282Z,25.00
2023-03-04T21:57:08.292Z,24.97
2023-03-04T21:59:35.857Z,24.95
2023-03-04T22:02:02.777Z,24.86
2023-03-04T22:04:29.574Z,24.92
2023-03-04T22:06:56.388Z,24.98
2023-03-04T22:09:23.487Z,24.73
2023-03-04T22:11:50.958Z,24.71
2023-03-04T22:14:18.640Z,24.68
2023-03-04T22:16:54.452Z,24.98
2023-03-04T22:19:22.785Z,24.99
2023-03-04T22:21:49.622Z,24.78
2023-03-04T22:24:16.470Z,24.83
2023-03-04T22:26:43.185Z,24.63
2023-03-04T22:29:09.988Z,24.86
